createdAt,value
2022-11-14T00:01:12.625Z,9.40
2022-11-14T00:03:39.865Z,10.70
2022-11-14T00:06:08.225Z,8.30
2022-11-14T00:08:35.545Z,8.30
2022-11-14T00:11:02.438Z,10.00
2022-11-14T00:13:28.983Z,10.60
2022-11-14T00:15:56.211Z,9.80
2022-11-14T00:18:23.292Z,9.40
2022-11-14T00:20:54.046Z,10.30
2022-11-14T00:23:21.472Z,8.20
2022-11-14T00:25:48.549Z,10.50
2022-11-14T00:28:15.687Z,9.70
2022-11-14T00:30:47.933Z,11.50
2022-11-14T00:33:20.166Z,10.10
2022-11-14T00:35:55.331Z,10.40
2022-11-14T00:38:23.110Z,10.00
2022-11-14T00:40:49.857Z,10.10
2022-11-14T00:43:16.628Z,11.70
2022-11-14T00:45:47.488Z,11.00
2022-11-14T00:48:15.563Z,10.70
2022-11-14T00:50:42.786Z,10.10
2022-11-14T00:53:09.433Z,11.70
2022-11-14T00:55:35.978Z,13.70
2022-11-14T00:58:02.662Z,9.40
2022-11-14T01:00:29.225Z,12.50
2022-11-14T01:02:57.661Z,10.50
2022-11-14T01:05:25.587Z,9.60
2022-11-14T01:07:52.598Z,11.00
2022-11-14T01:10:20.548Z,11.60
2022-11-14T01:12:48.137Z,10.10
2022-11-14T01:15:14.743Z,10.60
2022-11-14T01:17:41.758Z,10.20
2022-11-14T01:20:08.656Z,9.50
2022-11-14T01:22:35.194Z,12.20
2022-11-14T01:25:01.773Z,9.20
2022-11-14T01:27:31.436Z,7.50
2022-11-14T01:29:58.020Z,9.60
2022-11-14T01:32:27.021Z,10.70
2022-11-14T01:34:53.904Z,7.60
2022-11-14T01:37:21.742Z,8.60
2022-11-14T01:39:48.552Z,8.90
2022-11-14T01:42:17.480Z,8.30
2022-11-14T01:44:51.909Z,7.50
2022-11-14T01:47:24.380Z,7.40
2022-11-14T01:49:57.175Z,8.20
2022-11-14T01:52:33.227Z,7.90
2022-11-14T01:55:05.522Z,8.00
2022-11-14T01:57:37.993Z,9.30
2022-11-14T02:00:09.948Z,8.20
2022-11-14T02:02:38.016Z,7.00
2022-11-14T02:05:11.087Z,8.40
2022-11-14T02:07:40.150Z,8.00
2022-11-14T02:10:15.325Z,5.70
2022-11-14T02:12:42.260Z,6.60
2022-11-14T02:15:09.870Z,6.80
2022-11-14T02:17:36.453Z,6.40
2022-11-14T02:20:05.254Z,8.20
2022-11-14T02:22:32.815Z,6.80
2022-11-14T02:24:59.467Z,7.90
2022-11-14T02:27:26.212Z,8.70
2022-11-14T02:29:52.751Z,6.80
2022-11-14T02:32:19.315Z,4.10
2022-11-14T02:34:45.817Z,5.90
2022-11-14T02:37:12.430Z,7.20
2022-11-14T02:39:39.412Z,6.10
2022-11-14T02:42:06.029Z,6.00
2022-11-14T02:44:32.631Z,3.90
2022-11-14T02:46:59.139Z,5.30
2022-11-14T02:49:25.769Z,9.30
2022-11-14T02:51:52.283Z,8.10
2022-11-14T02:54:18.805Z,8.20
2022-11-14T02:56:45.386Z,10.40
2022-11-14T02:59:11.992Z,7.20
2022-11-14T03:01:38.606Z,9.30
2022-11-14T03:04:05.450Z,9.10
2022-11-14T03:06:31.903Z,8.50
2022-11-14T03:08:58.437Z,7.70
2022-11-14T03:11:25.194Z,8.90
2022-11-14T03:13:51.746Z,8.00
2022-11-14T03:16:18.370Z,8.40
2022-11-14T03:18:45.150Z,8.60
2022-11-14T03:21:20.777Z,8.00
2022-11-14T03:23:47.625Z,10.20
2022-11-14T03:26:15.236Z,8.80
2022-11-14T03:28:42.817Z,8.00
2022-11-14T03:31:12.574Z,8.40
2022-11-14T03:33:39.391Z,8.60
2022-11-14T03:36:07.756Z,9.10
2022-11-14T03:38:35.411Z,10.20
2022-11-14T03:41:02.032Z,8.90
2022-11-14T03:43:33.697Z,8.90
2022-11-14T03:46:02.788Z,10.60
2022-11-14T03:48:30.909Z,11.20
2022-11-14T03:50:58.330Z,10.20
2022-11-14T03:53:25.487Z,10.40
2022-11-14T03:55:52.260Z,11.30
2022-11-14T03:58:18.976Z,10.10
2022-11-14T04:00:45.906Z,12.20
2022-11-14T04:03:12.616Z,13.10
2022-11-14T04:05:39.157Z,11.40
2022-11-14T04:08:06.788Z,12.20
2022-11-14T04:10:33.487Z,11.70
2022-11-14T04:13:00.018Z,11.90
2022-11-14T04:15:26.661Z,12.80
2022-11-14T04:17:53.210Z,14.60
2022-11-14T04:20:19.796Z,12.90
2022-11-14T04:22:46.374Z,11.20
2022-11-14T04:25:12.966Z,13.00
2022-11-14T04:27:39.511Z,13.40
2022-11-14T04:30:07.637Z,12.60
2022-11-14T04:32:34.266Z,11.00
2022-11-14T04:35:00.744Z,13.70
2022-11-14T04:37:27.319Z,11.70
2022-11-14T04:39:58.054Z,13.80
2022-11-14T04:42:25.528Z,12.00
2022-11-14T04:44:52.173Z,11.20
2022-11-14T04:47:18.942Z,10.30
2022-11-14T04:49:45.425Z,10.00
2022-11-14T04:52:11.991Z,12.40
2022-11-14T04:54:38.537Z,10.70
2022-11-14T04:57:05.064Z,12.50
2022-11-14T04:59:31.614Z,13.00
2022-11-14T05:01:58.217Z,10.70
2022-11-14T05:04:25.408Z,10.40
2022-11-14T05:06:51.973Z,11.60
2022-11-14T05:09:18.638Z,13.00
2022-11-14T05:11:45.166Z,11.60
2022-11-14T05:14:11.809Z,15.00
2022-11-14T05:16:38.346Z,15.20
2022-11-14T05:19:04.964Z,12.80
2022-11-14T05:21:31.743Z,13.20
2022-11-14T05:23:58.374Z,14.70
2022-11-14T05:26:25.062Z,15.70
2022-11-14T05:28:51.943Z,16.70
2022-11-14T05:31:18.715Z,16.70
2022-11-14T05:33:46.616Z,13.60
2022-11-14T05:36:16.381Z,14.60
2022-11-14T05:38:43.132Z,14.20
2022-11-14T05:41:21.965Z,14.40
2022-11-14T05:43:48.466Z,14.80
2022-11-14T05:46:16.337Z,16.20
2022-11-14T05:48:43.211Z,15.40
2022-11-14T05:51:12.485Z,15.50
2022-11-14T05:53:39.981Z,16.50
2022-11-14T05:56:11.943Z,13.40
2022-11-14T05:58:39.473Z,18.50
2022-11-14T06:01:16.478Z,14.60
2022-11-14T06:03:46.026Z,21.40
2022-11-14T06:06:18.349Z,14.10
2022-11-14T06:08:45.301Z,20.10
2022-11-14T06:11:16.058Z,21.10
2022-11-14T06:13:44.097Z,21.40
2022-11-14T06:16:19.050Z,22.10
2022-11-14T06:18:46.997Z,20.00
2022-11-14T06:21:20.871Z,11.30
2022-11-14T06:23:48.861Z,19.20
2022-11-14T06:26:30.947Z,22.20
2022-11-14T06:28:59.681Z,22.70
2022-11-14T06:31:27.376Z,22.70
2022-11-14T06:33:54.381Z,24.50
2022-11-14T06:36:21.005Z,22.60
2022-11-14T06:38:47.635Z,20.00
2022-11-14T06:41:18.360Z,21.60
2022-11-14T06:43:48.356Z,19.90
2022-11-14T06:46:19.644Z,20.30
2022-11-14T06:48:47.771Z,23.80
2022-11-14T06:51:20.919Z,23.60
2022-11-14T06:53:49.336Z,21.70
2022-11-14T06:56:19.616Z,19.30
2022-11-14T06:58:49.193Z,24.00
2022-11-14T07:01:19.494Z,23.10
2022-11-14T07:03:47.090Z,22.30
2022-11-14T07:06:20.045Z,18.90
2022-11-14T07:08:46.580Z,21.30
2022-11-14T07:11:24.863Z,22.20
2022-11-14T07:13:54.086Z,25.00
2022-11-14T07:16:31.740Z,19.50
2022-11-14T07:19:00.199Z,18.10
2022-11-14T07:21:29.508Z,17.70
2022-11-14T07:23:57.480Z,17.30
2022-11-14T07:26:24.070Z,17.40
2022-11-14T07:28:52.995Z,15.80
2022-11-14T07:31:21.336Z,16.90
2022-11-14T07:33:48.170Z,17.10
2022-11-14T07:36:16.529Z,18.60
2022-11-14T07:38:43.233Z,18.60
2022-11-14T07:41:14.078Z,17.20
2022-11-14T07:43:41.873Z,15.90
2022-11-14T07:46:15.061Z,14.30
2022-11-14T07:48:42.897Z,17.20
2022-11-14T07:51:18.956Z,15.90
2022-11-14T07:53:45.551Z,14.90
2022-11-14T07:56:12.873Z,14.30
2022-11-14T07:58:41.643Z,15.10
2022-11-14T08:01:11.723Z,17.70
2022-11-14T08:03:45.386Z,15.60
2022-11-14T08:06:16.467Z,16.10
2022-11-14T08:08:43.538Z,17.30
2022-11-14T08:11:10.574Z,18.10
2022-11-14T08:13:37.242Z,17.10
2022-11-14T08:16:12.240Z,15.40
2022-11-14T08:18:40.541Z,17.20
2022-11-14T08:21:07.394Z,20.50
2022-11-14T08:23:34.172Z,16.90
2022-11-14T08:26:00.799Z,16.30
2022-11-14T08:28:27.620Z,15.40
2022-11-14T08:31:01.132Z,17.80
2022-11-14T08:33:27.630Z,17.50
2022-11-14T08:35:54.175Z,18.50
2022-11-14T08:38:20.872Z,19.80
2022-11-14T08:40:47.381Z,16.40
2022-11-14T08:43:13.945Z,14.60
2022-11-14T08:45:40.507Z,14.90
2022-11-14T08:48:07.069Z,16.60
2022-11-14T08:50:33.704Z,22.50
2022-11-14T08:53:00.722Z,20.50
2022-11-14T08:55:27.230Z,23.30
2022-11-14T08:57:54.304Z,15.70
2022-11-14T09:00:21.458Z,17.60
2022-11-14T09:02:48.095Z,16.60
2022-11-14T09:05:14.930Z,18.70
2022-11-14T09:07:41.519Z,21.10
2022-11-14T09:10:08.927Z,17.20
2022-11-14T09:12:35.553Z,17.00
2022-11-14T09:15:02.356Z,14.80
2022-11-14T09:17:28.952Z,15.60
2022-11-14T09:19:55.557Z,16.50
2022-11-14T09:22:22.768Z,17.00
2022-11-14T09:24:51.391Z,17.50
2022-11-14T09:27:18.046Z,14.50
2022-11-14T09:29:44.996Z,16.50
2022-11-14T09:32:11.527Z,14.50
2022-11-14T09:34:42.322Z,10.50
2022-11-14T09:37:08.858Z,11.20
2022-11-14T09:39:39.925Z,9.00
2022-11-14T09:42:22.970Z,10.60
2022-11-14T09:44:58.152Z,11.70
2022-11-14T09:48:06.168Z,13.00
2022-11-14T09:50:38.104Z,11.20
2022-11-14T09:53:17.261Z,10.70
2022-11-14T09:55:43.929Z,11.40
2022-11-14T09:58:21.188Z,10.60
2022-11-14T10:01:03.743Z,8.60
2022-11-14T10:04:00.687Z,11.50
2022-11-14T10:06:45.574Z,11.00
2022-11-14T10:09:30.481Z,10.30
2022-11-14T10:12:12.715Z,10.50
2022-11-14T10:15:20.531Z,11.60
2022-11-14T10:18:20.739Z,11.90
2022-11-14T10:21:57.673Z,11.40
2022-11-14T10:24:44.812Z,6.30
2022-11-14T10:27:25.259Z,10.60
2022-11-14T10:30:03.862Z,10.30
2022-11-14T10:32:42.358Z,10.10
2022-11-14T10:35:21.283Z,12.80
2022-11-14T10:38:06.384Z,13.00
2022-11-14T10:40:48.104Z,9.70
2022-11-14T10:43:46.210Z,12.40
2022-11-14T10:46:38.858Z,9.50
2022-11-14T10:49:23.709Z,15.10
2022-11-14T10:51:58.854Z,13.80
2022-11-14T10:54:51.784Z,13.70
2022-11-14T10:57:22.161Z,14.80
2022-11-14T10:59:48.733Z,15.20
2022-11-14T11:02:15.467Z,14.80
2022-11-14T11:04:45.078Z,12.90
2022-11-14T11:07:31.566Z,15.90
2022-11-14T11:10:21.200Z,16.60
2022-11-14T11:12:52.998Z,17.10
2022-11-14T11:15:24.217Z,15.00
2022-11-14T11:18:05.939Z,10.80
2022-11-14T11:20:39.234Z,9.60
2022-11-14T11:23:10.316Z,15.80
2022-11-14T11:25:39.629Z,12.80
2022-11-14T11:28:15.992Z,15.90
2022-11-14T11:30:56.927Z,16.80
2022-11-14T11:33:27.962Z,16.90
2022-11-14T11:36:11.036Z,17.00
2022-11-14T11:38:38.136Z,19.00
2022-11-14T11:44:37.034Z,14.90
2022-11-14T11:47:13.305Z,17.50
2022-11-14T11:49:51.731Z,17.20
2022-11-14T11:52:53.715Z,19.40
2022-11-14T11:55:26.865Z,18.00
2022-11-14T11:58:09.366Z,20.30
2022-11-14T12:00:36.016Z,18.50
2022-11-14T12:03:03.434Z,19.70
2022-11-14T12:06:15.780Z,20.40
2022-11-14T12:09:20.279Z,20.20
2022-11-14T12:11:57.337Z,20.70
2022-11-14T12:15:01.795Z,18.80
2022-11-14T12:18:12.121Z,19.30
2022-11-14T12:20:44.641Z,18.20
2022-11-14T12:23:52.242Z,18.70
2022-11-14T12:26:33.990Z,12.20
2022-11-14T12:29:44.609Z,19.10
2022-11-14T12:32:28.901Z,19.60
2022-11-14T12:34:58.501Z,20.10
2022-11-14T12:37:37.370Z,21.00
2022-11-14T12:40:22.699Z,14.80
2022-11-14T12:42:49.275Z,17.60
2022-11-14T12:45:41.163Z,18.00
2022-11-14T12:48:28.450Z,21.20
2022-11-14T12:50:57.677Z,21.30
2022-11-14T12:53:36.120Z,20.20
2022-11-14T12:56:22.250Z,18.90
2022-11-14T12:59:22.868Z,15.30
2022-11-14T13:01:52.499Z,15.20
2022-11-14T13:04:47.108Z,18.60
2022-11-14T13:07:34.777Z,15.30
2022-11-14T13:10:30.041Z,19.50
2022-11-14T13:13:29.317Z,19.90
2022-11-14T13:16:18.173Z,17.20
2022-11-14T13:19:30.473Z,17.80
2022-11-14T13:22:39.965Z,16.50
2022-11-14T13:25:21.643Z,16.40
2022-11-14T13:31:16.571Z,16.00
2022-11-14T13:33:50.895Z,10.20
2022-11-14T13:36:44.851Z,12.20
2022-11-14T13:39:44.899Z,8.90
2022-11-14T13:42:34.662Z,14.20
2022-11-14T13:46:04.995Z,15.10
2022-11-14T13:49:07.862Z,17.50
2022-11-14T13:51:43.960Z,14.30
2022-11-14T13:54:18.049Z,15.10
2022-11-14T13:57:03.837Z,15.70
2022-11-14T13:59:59.959Z,12.60
2022-11-14T14:03:04.631Z,15.30
2022-11-14T14:05:44.838Z,17.00
2022-11-14T14:08:17.536Z,12.30
2022-11-14T14:11:23.441Z,14.00
2022-11-14T14:14:40.613Z,14.90
2022-11-14T14:17:30.410Z,9.70
2022-11-14T14:20:32.816Z,17.80
2022-11-14T14:23:19.604Z,18.10
2022-11-14T14:25:58.331Z,16.90
2022-11-14T14:28:39.198Z,17.20
2022-11-14T14:31:22.986Z,13.80
2022-11-14T14:33:52.008Z,17.80
2022-11-14T14:36:29.431Z,20.70
2022-11-14T14:39:20.309Z,15.80
2022-11-14T14:41:49.046Z,21.70
2022-11-14T14:44:38.918Z,17.90
2022-11-14T14:47:41.634Z,17.80
2022-11-14T14:50:38.392Z,20.50
2022-11-14T14:53:19.097Z,16.50
2022-11-14T14:55:57.704Z,22.90
2022-11-14T14:58:34.756Z,18.80
2022-11-14T15:01:12.256Z,22.10
2022-11-14T15:03:44.053Z,23.20
2022-11-14T15:06:39.066Z,23.90
2022-11-14T15:09:16.892Z,24.50
2022-11-14T15:11:49.500Z,20.20
2022-11-14T15:14:29.199Z,22.20
2022-11-14T15:16:58.095Z,21.80
2022-11-14T15:19:37.228Z,19.40
2022-11-14T15:22:17.387Z,26.80
2022-11-14T15:24:51.530Z,23.90
2022-11-14T15:27:20.094Z,25.50
2022-11-14T15:30:02.683Z,29.00
2022-11-14T15:32:29.342Z,28.80
2022-11-14T15:35:25.451Z,23.50
2022-11-14T15:41:21.081Z,19.60
2022-11-14T15:43:52.691Z,25.40
2022-11-14T15:46:37.522Z,24.70
2022-11-14T15:49:28.090Z,27.10
2022-11-14T15:51:58.865Z,26.00
2022-11-14T15:54:31.660Z,22.60
2022-11-14T15:57:12.358Z,24.10
2022-11-14T15:59:39.563Z,23.30
2022-11-14T16:02:14.155Z,25.00
2022-11-14T16:04:46.159Z,26.50
2022-11-14T16:07:16.457Z,22.70
2022-11-14T16:09:43.782Z,24.70
2022-11-14T16:12:10.559Z,25.40
2022-11-14T16:14:37.314Z,22.10
2022-11-14T16:17:04.087Z,21.80
2022-11-14T16:19:30.723Z,24.60
2022-11-14T16:22:02.097Z,23.70
2022-11-14T16:24:33.949Z,20.90
2022-11-14T16:27:01.544Z,25.60
2022-11-14T16:29:28.169Z,24.40
2022-11-14T16:31:55.422Z,24.90
2022-11-14T16:34:25.220Z,26.00
2022-11-14T16:37:01.537Z,25.60
2022-11-14T16:39:29.072Z,27.40
2022-11-14T16:42:05.030Z,26.40
2022-11-14T16:44:38.966Z,28.00
2022-11-14T16:47:14.154Z,26.70
2022-11-14T16:49:40.719Z,26.80
2022-11-14T16:52:10.410Z,32.80
2022-11-14T16:54:36.934Z,26.70
2022-11-14T16:57:03.501Z,31.70
2022-11-14T16:59:30.074Z,27.50
2022-11-14T17:01:56.767Z,23.00
2022-11-14T17:04:23.633Z,27.20
2022-11-14T17:06:50.224Z,28.50
2022-11-14T17:09:16.896Z,23.90
2022-11-14T17:11:44.261Z,22.40
2022-11-14T17:14:11.370Z,24.20
2022-11-14T17:16:38.050Z,20.10
2022-11-14T17:19:04.851Z,26.90
2022-11-14T17:21:32.113Z,25.10
2022-11-14T17:24:01.051Z,19.90
2022-11-14T17:26:28.967Z,28.30
2022-11-14T17:28:55.971Z,21.00
2022-11-14T17:31:22.576Z,26.30
2022-11-14T17:33:55.031Z,27.20
2022-11-14T17:36:24.388Z,28.00
2022-11-14T17:38:51.231Z,29.60
2022-11-14T17:41:18.512Z,21.30
2022-11-14T17:43:45.564Z,23.20
2022-11-14T17:46:15.922Z,20.50
2022-11-14T17:48:44.629Z,15.80
2022-11-14T17:51:14.111Z,29.00
2022-11-14T17:53:42.258Z,27.70
2022-11-14T17:56:22.719Z,18.70
2022-11-14T17:58:52.167Z,28.20
2022-11-14T18:01:24.484Z,29.20
2022-11-14T18:03:51.172Z,28.90
2022-11-14T18:06:19.960Z,22.40
2022-11-14T18:08:47.589Z,17.80
2022-11-14T18:11:16.778Z,27.70
2022-11-14T18:13:43.452Z,22.40
2022-11-14T18:16:14.506Z,31.10
2022-11-14T18:18:41.104Z,28.90
2022-11-14T18:21:18.243Z,21.30
2022-11-14T18:23:51.698Z,26.60
2022-11-14T18:26:21.178Z,30.30
2022-11-14T18:28:47.745Z,22.90
2022-11-14T18:31:14.299Z,26.50
2022-11-14T18:33:41.503Z,29.90
2022-11-14T18:36:12.822Z,30.60
2022-11-14T18:38:40.755Z,21.90
2022-11-14T18:41:12.512Z,28.70
2022-11-14T18:43:39.914Z,18.80
2022-11-14T18:46:22.991Z,29.40
2022-11-14T18:48:55.120Z,23.90
2022-11-14T18:51:28.516Z,20.60
2022-11-14T18:53:58.595Z,24.80
2022-11-14T18:56:25.824Z,31.80
2022-11-14T18:58:55.888Z,22.90
2022-11-14T19:01:29.659Z,29.80
2022-11-14T19:04:00.251Z,28.20
2022-11-14T19:06:27.130Z,17.60
2022-11-14T19:09:05.563Z,20.20
2022-11-14T19:11:54.292Z,23.80
2022-11-14T19:14:21.221Z,27.10
2022-11-14T19:16:47.871Z,18.80
2022-11-14T19:19:14.759Z,33.40
2022-11-14T19:21:42.188Z,23.20
2022-11-14T19:24:09.189Z,24.50
2022-11-14T19:26:35.857Z,26.80
2022-11-14T19:29:13.239Z,28.60
2022-11-14T19:31:41.351Z,25.50
2022-11-14T19:34:09.531Z,31.00
2022-11-14T19:39:23.775Z,22.40
2022-11-14T19:41:50.550Z,31.20
2022-11-14T19:44:17.149Z,26.10
2022-11-14T19:46:47.605Z,31.70
2022-11-14T19:49:14.832Z,31.90
2022-11-14T19:51:41.658Z,32.80
2022-11-14T19:54:10.653Z,31.00
2022-11-14T19:56:37.260Z,32.20
2022-11-14T19:59:09.548Z,32.20
2022-11-14T20:01:41.581Z,32.50
2022-11-14T20:04:12.441Z,34.10
2022-11-14T20:06:41.109Z,31.90
2022-11-14T20:09:10.414Z,27.50
2022-11-14T20:11:37.285Z,30.80
2022-11-14T20:14:05.088Z,32.70
2022-11-14T20:16:35.341Z,37.40
2022-11-14T20:19:03.069Z,24.70
2022-11-14T20:21:33.174Z,26.60
2022-11-14T20:24:00.100Z,15.80
2022-11-14T20:26:27.272Z,31.50
2022-11-14T20:28:54.403Z,30.20
2022-11-14T20:31:25.851Z,32.80
2022-11-14T20:33:54.207Z,31.00
2022-11-14T20:36:24.540Z,33.90
2022-11-14T20:38:52.685Z,35.70
2022-11-14T20:41:20.656Z,34.00
2022-11-14T20:43:47.686Z,36.80
2022-11-14T20:46:18.275Z,26.50
2022-11-14T20:48:46.201Z,32.40
2022-11-14T20:51:19.991Z,31.90
2022-11-14T20:53:49.377Z,25.20
2022-11-14T20:56:17.663Z,30.50
2022-11-14T20:58:48.665Z,31.40
2022-11-14T21:01:16.099Z,32.10
2022-11-14T21:03:43.208Z,31.20
2022-11-14T21:06:12.803Z,31.60
2022-11-14T21:08:40.577Z,33.60
2022-11-14T21:11:12.727Z,30.40
2022-11-14T21:13:58.324Z,36.00
2022-11-14T21:16:34.650Z,34.40
2022-11-14T21:19:02.606Z,34.60
2022-11-14T21:21:33.506Z,25.40
2022-11-14T21:24:00.110Z,23.40
2022-11-14T21:26:30.753Z,28.90
2022-11-14T21:29:12.098Z,25.80
2022-11-14T21:31:44.164Z,30.90
2022-11-14T21:34:14.457Z,29.40
2022-11-14T21:36:46.441Z,35.10
2022-11-14T21:39:15.907Z,38.10
2022-11-14T21:41:44.510Z,34.60
2022-11-14T21:44:15.212Z,32.50
2022-11-14T21:46:43.010Z,33.80
2022-11-14T21:49:09.985Z,39.90
2022-11-14T21:51:36.592Z,34.30
2022-11-14T21:54:05.538Z,32.40
2022-11-14T21:56:35.585Z,34.60
2022-11-14T21:59:13.341Z,28.30
2022-11-14T22:02:08.995Z,24.70
2022-11-14T22:04:36.474Z,33.00
2022-11-14T22:07:06.991Z,37.00
2022-11-14T22:09:34.941Z,32.20
2022-11-14T22:12:01.601Z,28.70
2022-11-14T22:14:28.894Z,23.00
2022-11-14T22:16:55.765Z,33.20
2022-11-14T22:19:22.824Z,34.10
2022-11-14T22:21:49.650Z,35.60
2022-11-14T22:24:16.138Z,22.80
2022-11-14T22:26:42.729Z,22.50
2022-11-14T22:29:09.462Z,32.10
2022-11-14T22:31:37.677Z,31.10
2022-11-14T22:34:04.486Z,33.60
2022-11-14T22:36:31.341Z,33.30
2022-11-14T22:38:58.076Z,35.80
2022-11-14T22:41:32.693Z,33.20
2022-11-14T22:44:01.171Z,33.60
2022-11-14T22:46:28.460Z,38.40
2022-11-14T22:48:55.752Z,38.40
2022-11-14T22:51:25.911Z,37.80
2022-11-14T22:53:56.473Z,37.40
2022-11-14T22:56:27.901Z,34.00
2022-11-14T22:58:55.543Z,34.50
2022-11-14T23:01:29.245Z,37.70
2022-11-14T23:04:05.430Z,35.40
2022-11-14T23:06:33.841Z,35.00
2022-11-14T23:09:02.511Z,36.10
2022-11-14T23:11:31.714Z,31.20
2022-11-14T23:14:00.171Z,37.20
2022-11-14T23:16:30.950Z,35.50
2022-11-14T23:19:02.070Z,29.00
2022-11-14T23:21:33.001Z,36.30
2022-11-14T23:24:07.880Z,38.70
2022-11-14T23:26:34.456Z,34.00
2022-11-14T23:29:01.105Z,37.00
2022-11-14T23:31:28.098Z,33.20
2022-11-14T23:33:57.278Z,32.80
2022-11-14T23:36:24.207Z,36.50
2022-11-14T23:38:53.998Z,35.70
2022-11-14T23:41:26.798Z,36.60
2022-11-14T23:43:53.328Z,35.70
2022-11-14T23:46:20.032Z,38.20
2022-11-14T23:48:46.536Z,37.40
2022-11-14T23:51:13.099Z,41.30
2022-11-14T23:53:40.185Z,40.20
2022-11-14T23:56:11.197Z,38.50
2022-11-14T23:58:37.774Z,40.50
